createdAt,value
2019-05-14T00:00:21.723Z,75.09
2019-05-14T00:01:22.169Z,53.66
2019-05-14T00:02:21.789Z,49.95
2019-05-14T00:03:21.932Z,51.08
2019-05-14T00:04:22.129Z,60.75
2019-05-14T00:05:22.289Z,54.46
2019-05-14T00:06:21.927Z,77.34
2019-05-14T00:07:22.572Z,61.39
2019-05-14T00:08:22.710Z,51.24
2019-05-14T00:09:21.962Z,71.54
2019-05-14T00:10:22.131Z,70.09
2019-05-14T00:11:22.323Z,51.72
2019-05-14T00:12:22.534Z,51.88
2019-05-14T00:13:22.698Z,59.46
2019-05-14T00:14:35.686Z,73.80
2019-05-14T00:15:24.003Z,60.42
2019-05-14T00:16:24.325Z,77.50
2019-05-14T00:17:24.281Z,50.60
2019-05-14T00:18:23.413Z,52.37
2019-05-14T00:19:23.582Z,50.27
2019-05-14T00:20:23.777Z,68.00
2019-05-14T00:21:23.915Z,74.28
2019-05-14T00:22:24.087Z,64.29
2019-05-14T00:23:24.266Z,57.36
2019-05-14T00:24:24.422Z,63.81
2019-05-14T00:25:24.594Z,55.75
2019-05-14T00:26:24.741Z,52.85
2019-05-14T00:27:24.913Z,49.95
2019-05-14T00:28:25.699Z,52.05
2019-05-14T00:29:25.715Z,65.42
2019-05-14T00:30:25.348Z,61.71
2019-05-14T00:31:25.718Z,63.97
2019-05-14T00:32:25.786Z,78.47
2019-05-14T00:33:25.934Z,53.98
2019-05-14T00:34:26.091Z,66.87
2019-05-14T00:35:27.223Z,69.29
2019-05-14T00:36:26.454Z,59.14
2019-05-14T00:37:26.658Z,50.60
2019-05-14T00:38:26.799Z,58.65
2019-05-14T00:39:26.955Z,67.03
2019-05-14T00:40:27.718Z,60.59
2019-05-14T00:41:27.333Z,56.56
2019-05-14T00:42:27.492Z,54.62
2019-05-14T00:43:27.650Z,52.53
2019-05-14T00:44:27.813Z,61.23
2019-05-14T00:45:27.941Z,56.56
2019-05-14T00:46:28.090Z,50.76
2019-05-14T00:47:28.267Z,50.60
2019-05-14T00:48:28.425Z,50.92
2019-05-14T00:49:28.546Z,57.52
2019-05-14T00:50:31.525Z,58.01
2019-05-14T00:51:28.851Z,63.81
2019-05-14T00:52:31.363Z,60.42
2019-05-14T00:53:31.819Z,60.75
2019-05-14T00:54:29.447Z,51.72
2019-05-14T00:55:31.539Z,55.43
2019-05-14T00:56:31.991Z,70.90
2019-05-14T00:57:31.659Z,50.92
2019-05-14T00:58:31.018Z,49.63
2019-05-14T00:59:32.203Z,57.52
2019-05-14T01:00:52.721Z,51.72
2019-05-14T01:01:31.822Z,60.59
2019-05-14T01:02:31.974Z,49.15
2019-05-14T01:03:32.559Z,59.30
2019-05-14T01:04:32.162Z,63.81
2019-05-14T01:05:32.187Z,50.76
2019-05-14T01:06:32.499Z,50.92
2019-05-14T01:07:52.735Z,49.79
2019-05-14T01:08:32.229Z,73.80
2019-05-14T01:09:32.116Z,56.88
2019-05-14T01:10:32.270Z,60.26
2019-05-14T01:11:32.432Z,52.69
2019-05-14T01:12:32.598Z,61.23
2019-05-14T01:13:32.773Z,63.97
2019-05-14T01:14:33.696Z,53.98
2019-05-14T01:15:33.100Z,52.85
2019-05-14T01:16:34.227Z,63.00
2019-05-14T01:17:34.204Z,50.76
2019-05-14T01:18:33.639Z,50.43
2019-05-14T01:19:33.837Z,73.32
2019-05-14T01:20:34.009Z,61.39
2019-05-14T01:21:34.182Z,50.76
2019-05-14T01:22:34.357Z,72.19
2019-05-14T01:23:34.557Z,53.01
2019-05-14T01:24:34.698Z,51.88
2019-05-14T01:25:34.857Z,55.27
2019-05-14T01:26:35.032Z,55.59
2019-05-14T01:27:35.196Z,65.90
2019-05-14T01:28:35.347Z,50.27
2019-05-14T01:29:35.531Z,62.68
2019-05-14T01:30:35.678Z,60.59
2019-05-14T01:31:35.817Z,50.27
2019-05-14T01:32:35.950Z,76.05
2019-05-14T01:33:36.087Z,50.27
2019-05-14T01:34:36.721Z,61.07
2019-05-14T01:35:37.210Z,57.69
2019-05-14T01:36:36.728Z,56.72
2019-05-14T01:37:36.887Z,50.27
2019-05-14T01:38:37.055Z,50.76
2019-05-14T01:39:37.207Z,50.76
2019-05-14T01:40:37.373Z,63.33
2019-05-14T01:41:37.546Z,60.26
2019-05-14T01:42:37.700Z,50.11
2019-05-14T01:43:37.854Z,75.09
2019-05-14T01:44:38.041Z,55.59
2019-05-14T01:45:38.191Z,61.55
2019-05-14T01:46:38.725Z,51.08
2019-05-14T01:47:38.512Z,59.62
2019-05-14T01:48:38.687Z,59.78
2019-05-14T01:49:42.500Z,67.03
2019-05-14T01:50:41.235Z,57.20
2019-05-14T01:51:39.279Z,68.00
2019-05-14T01:52:41.618Z,52.85
2019-05-14T01:53:41.734Z,58.01
2019-05-14T01:54:42.758Z,51.40
2019-05-14T01:55:41.465Z,50.11
2019-05-14T01:56:42.336Z,52.85
2019-05-14T01:57:42.518Z,49.47
2019-05-14T01:58:41.831Z,53.01
2019-05-14T01:59:42.859Z,54.79
2019-05-14T02:00:41.917Z,50.11
2019-05-14T02:01:41.597Z,61.71
2019-05-14T02:02:42.304Z,55.75
2019-05-14T02:03:41.531Z,74.28
2019-05-14T02:04:42.689Z,65.42
2019-05-14T02:05:42.839Z,57.36
2019-05-14T02:06:42.095Z,78.15
2019-05-14T02:07:42.282Z,76.22
2019-05-14T02:08:42.424Z,59.14
2019-05-14T02:09:42.558Z,68.80
2019-05-14T02:10:42.679Z,53.82
2019-05-14T02:11:43.718Z,61.07
2019-05-14T02:12:43.095Z,58.97
2019-05-14T02:13:43.233Z,56.07
2019-05-14T02:14:43.337Z,58.49
2019-05-14T02:15:44.469Z,58.33
2019-05-14T02:16:43.691Z,74.93
2019-05-14T02:17:43.838Z,78.96
2019-05-14T02:18:43.967Z,65.10
2019-05-14T02:19:44.204Z,62.52
2019-05-14T02:20:44.321Z,61.23
2019-05-14T02:21:44.492Z,68.48
2019-05-14T02:22:44.731Z,76.70
2019-05-14T02:23:44.764Z,69.61
2019-05-14T02:24:44.896Z,78.47
2019-05-14T02:25:45.044Z,64.29
2019-05-14T02:26:45.716Z,74.44
2019-05-14T02:27:45.349Z,79.60
2019-05-14T02:28:45.542Z,77.34
2019-05-14T02:29:45.701Z,60.59
2019-05-14T02:30:55.926Z,73.80
2019-05-14T02:31:50.401Z,64.61
2019-05-14T02:32:49.738Z,74.28
2019-05-14T02:33:50.387Z,62.20
2019-05-14T02:34:50.012Z,76.38
2019-05-14T02:35:49.404Z,63.00
2019-05-14T02:36:49.646Z,62.36
2019-05-14T02:37:50.497Z,77.02
2019-05-14T02:38:49.581Z,79.44
2019-05-14T02:39:50.259Z,69.13
2019-05-14T02:40:49.592Z,80.89
2019-05-14T02:41:49.862Z,72.83
2019-05-14T02:42:49.771Z,68.32
2019-05-14T02:43:50.325Z,79.12
2019-05-14T02:44:49.499Z,75.41
2019-05-14T02:46:03.371Z,67.19
2019-05-14T02:46:50.678Z,70.09
2019-05-14T02:47:50.537Z,79.92
2019-05-14T02:48:49.999Z,69.77
2019-05-14T02:49:50.208Z,70.58
2019-05-14T02:50:50.266Z,77.99
2019-05-14T02:51:50.390Z,70.09
2019-05-14T02:52:50.573Z,71.06
2019-05-14T02:54:10.807Z,69.61
2019-05-14T02:54:51.059Z,70.58
2019-05-14T02:55:50.202Z,70.09
2019-05-14T02:56:50.370Z,69.29
2019-05-14T02:57:50.550Z,69.29
2019-05-14T02:58:50.684Z,78.96
2019-05-14T02:59:51.224Z,78.96
2019-05-14T03:00:50.982Z,77.18
2019-05-14T03:01:51.146Z,70.74
2019-05-14T03:02:52.226Z,75.25
2019-05-14T03:03:51.491Z,67.35
2019-05-14T03:04:51.691Z,79.12
2019-05-14T03:05:51.857Z,77.67
2019-05-14T03:06:52.720Z,67.84
2019-05-14T03:07:52.221Z,68.48
2019-05-14T03:08:52.405Z,78.15
2019-05-14T03:09:52.591Z,77.50
2019-05-14T03:10:53.723Z,79.12
2019-05-14T03:11:52.904Z,79.44
2019-05-14T03:12:53.049Z,78.96
2019-05-14T03:13:53.200Z,76.54
2019-05-14T03:14:53.366Z,77.99
2019-05-14T03:15:53.549Z,81.53
2019-05-14T03:16:53.693Z,76.86
2019-05-14T03:17:53.850Z,81.21
2019-05-14T03:18:54.005Z,82.50
2019-05-14T03:19:54.176Z,77.99
2019-05-14T03:20:54.740Z,82.02
2019-05-14T03:21:54.486Z,79.60
2019-05-14T03:23:02.978Z,79.12
2019-05-14T03:24:00.696Z,79.76
2019-05-14T03:24:54.975Z,81.05
2019-05-14T03:25:55.180Z,82.82
2019-05-14T03:26:55.353Z,80.73
2019-05-14T03:27:55.506Z,79.60
2019-05-14T03:28:55.657Z,77.50
2019-05-14T03:29:58.491Z,79.28
2019-05-14T03:31:01.966Z,80.08
2019-05-14T03:32:02.103Z,78.31
2019-05-14T03:33:02.926Z,79.92
2019-05-14T03:34:02.873Z,78.96
2019-05-14T03:35:03.946Z,78.47
2019-05-14T03:36:08.133Z,82.50
2019-05-14T03:37:03.443Z,82.34
2019-05-14T03:38:00.400Z,76.86
2019-05-14T03:38:59.358Z,79.12
2019-05-14T03:39:59.465Z,77.83
2019-05-14T03:41:00.184Z,77.18
2019-05-14T03:41:59.256Z,89.27
2019-05-14T03:42:59.784Z,77.99
2019-05-14T03:44:00.163Z,78.15
2019-05-14T03:44:59.905Z,81.37
2019-05-14T03:45:59.794Z,77.50
2019-05-14T03:47:04.688Z,80.73
2019-05-14T03:48:01.206Z,79.28
2019-05-14T03:49:00.075Z,79.92
2019-05-14T03:50:00.495Z,83.31
2019-05-14T03:51:00.459Z,78.79
2019-05-14T03:52:00.859Z,81.05
2019-05-14T03:53:00.162Z,79.28
2019-05-14T03:54:06.680Z,78.79
2019-05-14T03:55:04.727Z,69.45
2019-05-14T03:56:01.679Z,67.68
2019-05-14T03:57:00.976Z,79.92
2019-05-14T03:58:01.153Z,77.50
2019-05-14T03:59:01.393Z,80.08
2019-05-14T04:00:01.560Z,77.83
2019-05-14T04:01:01.720Z,80.89
2019-05-14T04:02:01.854Z,78.63
2019-05-14T04:03:02.022Z,79.76
2019-05-14T04:04:02.220Z,82.18
2019-05-14T04:05:02.379Z,77.02
2019-05-14T04:06:02.577Z,79.92
2019-05-14T04:07:02.741Z,79.12
2019-05-14T04:08:02.902Z,81.37
2019-05-14T04:09:03.241Z,80.73
2019-05-14T04:10:03.257Z,78.47
2019-05-14T04:11:04.232Z,82.66
2019-05-14T04:12:04.243Z,80.89
2019-05-14T04:13:03.745Z,76.38
2019-05-14T04:14:03.932Z,78.47
2019-05-14T04:15:04.078Z,79.76
2019-05-14T04:16:04.212Z,79.28
2019-05-14T04:17:09.747Z,79.92
2019-05-14T04:18:09.043Z,79.76
2019-05-14T04:19:04.791Z,78.15
2019-05-14T04:20:04.975Z,79.76
2019-05-14T04:21:05.149Z,78.47
2019-05-14T04:22:05.312Z,82.50
2019-05-14T04:23:05.480Z,105.86
2019-05-14T04:24:05.609Z,78.79
2019-05-14T04:25:05.821Z,78.31
2019-05-14T04:26:09.147Z,85.40
2019-05-14T04:27:11.636Z,81.37
2019-05-14T04:28:09.840Z,84.59
2019-05-14T04:29:10.163Z,78.31
2019-05-14T04:30:09.490Z,76.38
2019-05-14T04:31:09.813Z,86.04
2019-05-14T04:32:09.476Z,79.12
2019-05-14T04:33:10.648Z,77.99
2019-05-14T04:34:10.755Z,81.53
2019-05-14T04:35:09.593Z,79.44
2019-05-14T04:36:09.936Z,80.57
2019-05-14T04:37:09.794Z,76.22
2019-05-14T04:38:09.703Z,83.47
2019-05-14T04:39:09.752Z,79.76
2019-05-14T04:40:10.321Z,87.01
2019-05-14T04:41:10.558Z,79.12
2019-05-14T04:42:10.006Z,81.05
2019-05-14T04:43:10.239Z,88.30
2019-05-14T04:44:10.161Z,84.43
2019-05-14T04:45:11.090Z,89.43
2019-05-14T04:46:10.970Z,79.44
2019-05-14T04:47:22.897Z,80.57
2019-05-14T04:48:27.200Z,78.63
2019-05-14T04:49:12.060Z,79.76
2019-05-14T04:50:11.057Z,79.60
2019-05-14T04:51:10.506Z,83.63
2019-05-14T04:52:11.223Z,81.21
2019-05-14T04:53:10.846Z,80.24
2019-05-14T04:54:11.006Z,80.41
2019-05-14T04:55:11.169Z,78.47
2019-05-14T04:56:11.350Z,75.73
2019-05-14T04:57:11.501Z,78.47
2019-05-14T04:58:11.664Z,81.21
2019-05-14T04:59:11.815Z,79.92
2019-05-14T05:00:12.705Z,80.41
2019-05-14T05:01:13.146Z,77.02
2019-05-14T05:02:12.303Z,77.02
2019-05-14T05:03:13.005Z,79.92
2019-05-14T05:04:13.673Z,81.21
2019-05-14T05:05:12.788Z,78.79
2019-05-14T05:06:12.957Z,82.18
2019-05-14T05:07:13.132Z,75.73
2019-05-14T05:08:14.370Z,77.02
2019-05-14T05:09:14.535Z,79.76
2019-05-14T05:10:13.768Z,78.63
2019-05-14T05:11:13.932Z,80.73
2019-05-14T05:12:14.070Z,76.70
2019-05-14T05:13:14.211Z,78.79
2019-05-14T05:14:14.352Z,77.67
2019-05-14T05:15:14.500Z,82.18
2019-05-14T05:16:14.657Z,76.38
2019-05-14T05:17:14.796Z,79.44
2019-05-14T05:18:14.952Z,81.86
2019-05-14T05:19:15.104Z,78.47
2019-05-14T05:20:18.986Z,78.31
2019-05-14T05:21:15.476Z,78.31
2019-05-14T05:22:15.640Z,77.50
2019-05-14T05:23:18.837Z,86.37
2019-05-14T05:24:18.278Z,79.44
2019-05-14T05:25:16.168Z,80.57
2019-05-14T05:26:18.418Z,83.31
2019-05-14T05:27:18.501Z,77.99
2019-05-14T05:28:19.050Z,75.89
2019-05-14T05:29:18.584Z,77.99
2019-05-14T05:30:19.029Z,79.28
2019-05-14T05:31:18.648Z,79.60
2019-05-14T05:32:19.498Z,80.89
2019-05-14T05:33:18.830Z,78.96
2019-05-14T05:34:19.377Z,78.96
2019-05-14T05:35:19.011Z,81.86
2019-05-14T05:36:18.588Z,78.79
2019-05-14T05:37:19.447Z,81.05
2019-05-14T05:38:18.619Z,79.76
2019-05-14T05:39:19.058Z,79.60
2019-05-14T05:40:19.996Z,79.44
2019-05-14T05:41:19.440Z,79.44
2019-05-14T05:42:19.478Z,80.73
2019-05-14T05:43:19.651Z,79.92
2019-05-14T05:44:19.766Z,78.31
2019-05-14T05:45:19.927Z,78.96
2019-05-14T05:46:20.726Z,80.73
2019-05-14T05:47:20.335Z,80.57
2019-05-14T05:48:21.226Z,79.28
2019-05-14T05:49:20.733Z,79.44
2019-05-14T05:50:20.906Z,80.24
2019-05-14T05:51:21.025Z,81.86
2019-05-14T05:52:21.159Z,80.57
2019-05-14T05:53:21.287Z,78.47
2019-05-14T05:54:21.448Z,80.89
2019-05-14T05:55:21.608Z,84.11
2019-05-14T05:56:21.765Z,83.31
2019-05-14T05:57:21.898Z,77.99
2019-05-14T05:58:22.046Z,83.14
2019-05-14T05:59:23.730Z,80.57
2019-05-14T06:00:22.750Z,75.41
2019-05-14T06:01:38.516Z,79.92
2019-05-14T06:02:23.633Z,79.60
2019-05-14T06:03:22.863Z,81.37
2019-05-14T06:04:22.980Z,80.08
2019-05-14T06:05:23.227Z,77.83
2019-05-14T06:06:23.358Z,85.24
2019-05-14T06:07:24.500Z,81.53
2019-05-14T06:08:23.741Z,81.37
2019-05-14T06:09:23.870Z,80.08
2019-05-14T06:10:24.032Z,81.53
2019-05-14T06:11:24.188Z,78.96
2019-05-14T06:12:24.317Z,81.21
2019-05-14T06:13:24.463Z,78.96
2019-05-14T06:14:24.605Z,78.47
2019-05-14T06:15:24.768Z,78.31
2019-05-14T06:16:24.927Z,81.05
2019-05-14T06:17:25.235Z,79.92
2019-05-14T06:18:25.232Z,78.31
2019-05-14T06:19:25.381Z,79.28
2019-05-14T06:20:25.535Z,80.73
2019-05-14T06:21:25.716Z,83.14
2019-05-14T06:22:27.911Z,77.02
2019-05-14T06:23:28.347Z,85.72
2019-05-14T06:24:28.451Z,77.99
2019-05-14T06:25:26.333Z,79.60
2019-05-14T06:26:28.776Z,79.12
2019-05-14T06:27:28.569Z,80.08
2019-05-14T06:28:32.910Z,79.76
2019-05-14T06:29:29.158Z,78.79
2019-05-14T06:30:28.514Z,83.31
2019-05-14T06:31:29.092Z,78.63
2019-05-14T06:32:29.074Z,77.83
2019-05-14T06:33:28.879Z,81.53
2019-05-14T06:34:29.073Z,79.28
2019-05-14T06:35:29.060Z,79.76
2019-05-14T06:36:29.042Z,79.60
2019-05-14T06:37:30.153Z,76.54
2019-05-14T06:38:29.666Z,79.28
2019-05-14T06:39:28.674Z,77.02
2019-05-14T06:40:28.832Z,77.18
2019-05-14T06:41:29.017Z,79.92
2019-05-14T06:42:29.169Z,78.96
2019-05-14T06:43:29.313Z,78.15
2019-05-14T06:44:29.645Z,77.67
2019-05-14T06:45:30.671Z,77.99
2019-05-14T06:46:30.248Z,78.96
2019-05-14T06:47:30.736Z,85.40
2019-05-14T06:48:34.356Z,79.12
2019-05-14T06:49:31.378Z,78.15
2019-05-14T06:50:31.248Z,79.44
2019-05-14T06:51:30.680Z,80.08
2019-05-14T06:52:31.754Z,77.67
2019-05-14T06:53:31.033Z,78.15
2019-05-14T06:54:31.198Z,80.08
2019-05-14T06:55:31.338Z,80.73
2019-05-14T06:56:31.505Z,78.31
2019-05-14T06:57:31.660Z,78.31
2019-05-14T06:58:31.872Z,81.37
2019-05-14T06:59:32.049Z,79.28
2019-05-14T07:00:32.199Z,78.96
2019-05-14T07:01:32.347Z,77.50
2019-05-14T07:02:32.541Z,78.31
2019-05-14T07:03:32.716Z,95.23
2019-05-14T07:04:33.746Z,79.44
2019-05-14T07:05:33.000Z,79.12
2019-05-14T07:06:33.162Z,81.53
2019-05-14T07:07:33.343Z,75.25
2019-05-14T07:08:33.538Z,79.44
2019-05-14T07:09:33.731Z,77.67
2019-05-14T07:10:33.891Z,77.50
2019-05-14T07:11:34.091Z,76.54
2019-05-14T07:12:34.277Z,76.70
2019-05-14T07:13:34.446Z,75.89
2019-05-14T07:14:34.635Z,78.63
2019-05-14T07:15:38.455Z,75.25
2019-05-14T07:16:35.020Z,79.28
2019-05-14T07:17:38.463Z,75.09
2019-05-14T07:18:46.501Z,76.22
2019-05-14T07:19:38.569Z,80.57
2019-05-14T07:20:35.703Z,77.67
2019-05-14T07:21:38.191Z,79.44
2019-05-14T07:22:36.014Z,77.99
2019-05-14T07:23:38.511Z,78.15
2019-05-14T07:24:39.782Z,74.12
2019-05-14T07:25:39.336Z,74.28
2019-05-14T07:26:38.853Z,75.09
2019-05-14T07:27:39.256Z,76.86
2019-05-14T07:28:42.049Z,77.34
2019-05-14T07:29:38.718Z,72.35
2019-05-14T07:30:39.672Z,77.02
2019-05-14T07:31:39.250Z,79.76
2019-05-14T07:32:39.481Z,77.34
2019-05-14T07:33:39.112Z,78.47
2019-05-14T07:34:38.894Z,78.63
2019-05-14T07:35:39.289Z,76.38
2019-05-14T07:36:38.815Z,77.99
2019-05-14T07:37:39.980Z,76.86
2019-05-14T07:38:39.783Z,79.12
2019-05-14T07:39:38.906Z,77.50
2019-05-14T07:40:39.378Z,76.54
2019-05-14T07:41:39.315Z,80.73
2019-05-14T07:42:39.441Z,77.67
2019-05-14T07:43:39.642Z,79.76
2019-05-14T07:44:39.818Z,78.79
2019-05-14T07:45:39.994Z,85.56
2019-05-14T07:46:40.152Z,77.99
2019-05-14T07:47:41.254Z,76.70
2019-05-14T07:48:40.493Z,77.02
2019-05-14T07:49:40.679Z,78.47
2019-05-14T07:50:40.873Z,77.50
2019-05-14T07:51:41.051Z,77.34
2019-05-14T07:52:45.385Z,77.83
2019-05-14T07:53:42.663Z,81.53
2019-05-14T07:54:42.510Z,80.08
2019-05-14T07:55:41.652Z,77.34
2019-05-14T07:56:41.839Z,77.50
2019-05-14T07:57:42.772Z,80.24
2019-05-14T07:58:42.147Z,77.02
2019-05-14T07:59:42.310Z,77.34
2019-05-14T08:00:42.536Z,76.70
2019-05-14T08:01:42.665Z,77.99
2019-05-14T08:02:42.805Z,76.54
2019-05-14T08:03:42.954Z,74.60
2019-05-14T08:04:43.094Z,79.44
2019-05-14T08:05:43.289Z,77.50
2019-05-14T08:06:43.483Z,75.57
2019-05-14T08:07:43.655Z,79.28
2019-05-14T08:08:43.838Z,75.25
2019-05-14T08:09:44.768Z,76.05
2019-05-14T08:10:44.150Z,76.05
2019-05-14T08:11:44.314Z,77.18
2019-05-14T08:12:44.480Z,79.44
2019-05-14T08:13:44.656Z,77.18
2019-05-14T08:14:57.683Z,78.63
2019-05-14T08:15:48.990Z,77.83
2019-05-14T08:16:45.198Z,77.67
2019-05-14T08:17:45.398Z,71.87
2019-05-14T08:18:45.575Z,80.41
2019-05-14T08:19:45.726Z,75.73
2019-05-14T08:20:48.683Z,78.63
2019-05-14T08:21:48.094Z,74.77
2019-05-14T08:22:48.806Z,75.73
2019-05-14T08:23:48.135Z,77.02
2019-05-14T08:24:48.743Z,77.99
2019-05-14T08:25:48.120Z,76.38
2019-05-14T08:26:48.709Z,75.41
2019-05-14T08:27:48.349Z,82.98
2019-05-14T08:28:49.059Z,77.67
2019-05-14T08:29:48.840Z,82.02
2019-05-14T08:30:49.070Z,79.12
2019-05-14T08:31:48.926Z,72.51
2019-05-14T08:32:49.078Z,76.54
2019-05-14T08:33:49.270Z,77.83
2019-05-14T08:34:48.270Z,76.54
2019-05-14T08:35:48.872Z,75.57
2019-05-14T08:36:49.542Z,77.18
2019-05-14T08:37:49.237Z,76.38
2019-05-14T08:38:50.342Z,76.70
2019-05-14T08:39:50.032Z,77.99
2019-05-14T08:40:49.157Z,75.89
2019-05-14T08:41:58.538Z,82.02
2019-05-14T08:42:51.443Z,74.44
2019-05-14T08:43:49.709Z,72.83
2019-05-14T08:44:51.400Z,76.86
2019-05-14T08:45:51.114Z,76.86
2019-05-14T08:46:50.785Z,76.86
2019-05-14T08:47:50.417Z,78.63
2019-05-14T08:48:50.592Z,77.50
2019-05-14T08:49:51.104Z,77.83
2019-05-14T08:50:50.995Z,78.47
2019-05-14T08:51:51.147Z,77.50
2019-05-14T08:52:51.315Z,76.38
2019-05-14T08:53:51.471Z,76.05
2019-05-14T08:55:05.353Z,75.41
2019-05-14T08:55:54.323Z,76.54
2019-05-14T08:56:51.907Z,76.70
2019-05-14T08:57:53.128Z,76.70
2019-05-14T08:58:52.177Z,77.50
2019-05-14T08:59:52.368Z,74.28
2019-05-14T09:00:52.528Z,80.08
2019-05-14T09:02:01.742Z,72.03
2019-05-14T09:02:54.924Z,76.38
2019-05-14T09:03:53.148Z,77.02
2019-05-14T09:04:54.977Z,77.83
2019-05-14T09:05:55.282Z,77.02
2019-05-14T09:06:54.298Z,77.18
2019-05-14T09:07:53.715Z,77.67
2019-05-14T09:08:53.850Z,80.73
2019-05-14T09:09:55.006Z,81.21
2019-05-14T09:10:54.300Z,76.05
2019-05-14T09:11:54.312Z,75.73
2019-05-14T09:12:54.491Z,76.05
2019-05-14T09:13:54.626Z,78.63
2019-05-14T09:14:54.785Z,75.25
2019-05-14T09:15:54.977Z,78.96
2019-05-14T09:16:55.152Z,73.64
2019-05-14T09:17:55.296Z,79.44
2019-05-14T09:18:55.443Z,75.25
2019-05-14T09:20:05.755Z,73.96
2019-05-14T09:20:58.319Z,77.34
2019-05-14T09:21:58.875Z,75.73
2019-05-14T09:22:59.518Z,79.12
2019-05-14T09:23:58.763Z,80.89
2019-05-14T09:24:59.854Z,77.50
2019-05-14T09:25:58.804Z,76.86
2019-05-14T09:26:59.023Z,78.31
2019-05-14T09:27:58.587Z,75.09
2019-05-14T09:28:58.683Z,78.96
2019-05-14T09:29:59.090Z,75.41
2019-05-14T09:30:59.832Z,76.70
2019-05-14T09:31:59.237Z,76.54
2019-05-14T09:32:59.459Z,74.12
2019-05-14T09:33:58.990Z,86.37
2019-05-14T09:34:58.996Z,80.08
2019-05-14T09:36:13.584Z,78.15
2019-05-14T09:37:00.611Z,78.15
2019-05-14T09:37:59.323Z,77.34
2019-05-14T09:38:59.915Z,77.50
2019-05-14T09:39:59.054Z,77.34
2019-05-14T09:41:10.541Z,82.50
2019-05-14T09:42:01.383Z,82.66
2019-05-14T09:43:00.319Z,77.83
2019-05-14T09:43:59.602Z,76.54
2019-05-14T09:44:59.788Z,81.21
2019-05-14T09:45:59.950Z,76.70
2019-05-14T09:47:00.175Z,71.54
2019-05-14T09:48:00.340Z,79.12
2019-05-14T09:49:01.295Z,77.83
2019-05-14T09:50:15.123Z,76.05
2019-05-14T09:51:02.845Z,76.54
2019-05-14T09:52:00.975Z,76.70
2019-05-14T09:53:01.172Z,79.12
2019-05-14T09:54:01.430Z,78.15
2019-05-14T09:55:01.591Z,75.25
2019-05-14T09:56:01.770Z,76.54
2019-05-14T09:57:02.798Z,77.50
2019-05-14T09:58:02.125Z,77.83
2019-05-14T09:59:02.321Z,77.83
2019-05-14T10:00:02.382Z,79.76
2019-05-14T10:01:02.570Z,80.24
2019-05-14T10:02:02.747Z,76.86
2019-05-14T10:03:02.895Z,87.50
2019-05-14T10:04:03.107Z,77.83
2019-05-14T10:05:03.297Z,75.73
2019-05-14T10:06:04.327Z,74.60
2019-05-14T10:07:03.747Z,77.67
2019-05-14T10:08:03.931Z,78.31
2019-05-14T10:09:04.064Z,75.09
2019-05-14T10:10:04.256Z,84.76
2019-05-14T10:11:04.434Z,77.34
2019-05-14T10:12:04.819Z,77.99
2019-05-14T10:13:04.774Z,78.63
2019-05-14T10:14:07.818Z,74.60
2019-05-14T10:15:05.117Z,77.50
2019-05-14T10:16:06.282Z,79.12
2019-05-14T10:17:05.413Z,76.22
2019-05-14T10:18:11.061Z,76.86
2019-05-14T10:19:06.722Z,73.96
2019-05-14T10:20:08.572Z,80.08
2019-05-14T10:21:08.372Z,74.12
2019-05-14T10:22:08.131Z,76.70
2019-05-14T10:23:06.386Z,76.70
2019-05-14T10:24:09.118Z,77.34
2019-05-14T10:25:08.900Z,77.99
2019-05-14T10:26:09.133Z,75.73
2019-05-14T10:27:08.903Z,76.70
2019-05-14T10:28:08.673Z,77.99
2019-05-14T10:29:08.710Z,74.77
2019-05-14T10:30:10.323Z,75.57
2019-05-14T10:31:09.817Z,79.28
2019-05-14T10:32:09.025Z,75.89
2019-05-14T10:33:14.125Z,75.57
2019-05-14T10:34:10.202Z,75.57
2019-05-14T10:35:08.570Z,76.05
2019-05-14T10:36:09.496Z,78.63
2019-05-14T10:37:08.859Z,87.17
2019-05-14T10:38:09.849Z,77.83
2019-05-14T10:39:09.499Z,75.57
2019-05-14T10:40:10.668Z,79.12
2019-05-14T10:41:10.365Z,79.12
2019-05-14T10:42:09.521Z,77.34
2019-05-14T10:43:09.663Z,78.63
2019-05-14T10:44:09.814Z,76.05
2019-05-14T10:45:12.722Z,76.22
2019-05-14T10:46:11.104Z,77.18
2019-05-14T10:47:10.260Z,76.05
2019-05-14T10:48:10.432Z,75.73
2019-05-14T10:49:17.407Z,79.28
2019-05-14T10:50:13.948Z,76.86
2019-05-14T10:51:12.100Z,76.70
2019-05-14T10:52:11.325Z,77.18
2019-05-14T10:53:11.481Z,78.31
2019-05-14T10:54:24.305Z,77.02
2019-05-14T10:55:13.814Z,74.44
2019-05-14T10:56:11.917Z,82.34
2019-05-14T10:57:12.082Z,73.32
2019-05-14T10:58:12.250Z,75.09
2019-05-14T10:59:12.421Z,75.89
2019-05-14T11:00:12.588Z,73.96
2019-05-14T11:01:12.755Z,79.60
2019-05-14T11:02:13.821Z,79.92
2019-05-14T11:03:13.845Z,82.50
2019-05-14T11:04:13.281Z,79.44
2019-05-14T11:05:13.435Z,75.09
2019-05-14T11:06:13.623Z,76.05
2019-05-14T11:07:13.802Z,79.44
2019-05-14T11:08:14.835Z,80.89
2019-05-14T11:09:14.101Z,77.34
2019-05-14T11:10:14.357Z,78.31
2019-05-14T11:11:14.426Z,75.57
2019-05-14T11:12:14.576Z,83.31
2019-05-14T11:13:14.752Z,80.08
2019-05-14T11:14:14.893Z,75.57
2019-05-14T11:15:15.054Z,77.67
2019-05-14T11:16:15.825Z,78.79
2019-05-14T11:17:15.356Z,77.83
2019-05-14T11:18:15.541Z,73.80
2019-05-14T11:19:15.716Z,78.63
2019-05-14T11:20:15.890Z,78.47
2019-05-14T11:21:24.837Z,81.21
2019-05-14T11:22:18.573Z,75.89
2019-05-14T11:23:18.444Z,78.15
2019-05-14T11:24:18.885Z,77.99
2019-05-14T11:25:19.622Z,76.38
2019-05-14T11:26:18.537Z,84.27
2019-05-14T11:27:18.766Z,75.09
2019-05-14T11:28:19.145Z,74.93
2019-05-14T11:29:39.571Z,77.02
2019-05-14T11:30:19.332Z,77.34
2019-05-14T11:31:19.427Z,77.02
2019-05-14T11:32:19.134Z,77.18
2019-05-14T11:33:18.921Z,76.70
2019-05-14T11:34:19.232Z,79.12
2019-05-14T11:35:19.844Z,77.18
2019-05-14T11:36:18.996Z,74.44
2019-05-14T11:37:20.824Z,75.89
2019-05-14T11:38:32.153Z,75.89
2019-05-14T11:39:21.848Z,78.31
2019-05-14T11:40:19.567Z,75.09
2019-05-14T11:41:19.721Z,79.12
2019-05-14T11:42:20.092Z,75.25
2019-05-14T11:43:21.013Z,77.18
2019-05-14T11:44:20.134Z,77.99
2019-05-14T11:45:20.288Z,77.02
2019-05-14T11:46:33.045Z,76.86
2019-05-14T11:47:22.639Z,81.05
2019-05-14T11:48:20.904Z,82.34
2019-05-14T11:49:21.061Z,75.73
2019-05-14T11:50:21.254Z,77.34
2019-05-14T11:51:53.095Z,82.02
2019-05-14T11:52:23.647Z,79.60
2019-05-14T11:53:21.893Z,74.77
2019-05-14T11:54:23.144Z,74.93
2019-05-14T11:55:23.244Z,77.02
2019-05-14T11:56:22.369Z,75.09
2019-05-14T11:57:22.564Z,77.99
2019-05-14T11:58:22.703Z,76.22
2019-05-14T11:59:22.845Z,81.37
2019-05-14T12:00:25.895Z,72.67
2019-05-14T12:01:23.246Z,76.54
2019-05-14T12:02:23.412Z,77.83
2019-05-14T12:03:23.568Z,77.18
2019-05-14T12:04:23.736Z,81.69
2019-05-14T12:05:23.896Z,77.50
2019-05-14T12:06:24.057Z,76.54
2019-05-14T12:07:24.234Z,80.24
2019-05-14T12:08:25.342Z,86.85
2019-05-14T12:09:24.615Z,75.89
2019-05-14T12:10:24.773Z,76.05
2019-05-14T12:11:24.911Z,74.93
2019-05-14T12:12:25.054Z,74.60
2019-05-14T12:13:29.862Z,75.41
2019-05-14T12:14:26.491Z,78.79
2019-05-14T12:15:25.618Z,78.63
2019-05-14T12:16:28.901Z,77.99
2019-05-14T12:17:26.038Z,76.54
2019-05-14T12:18:26.363Z,77.67
2019-05-14T12:19:28.419Z,73.48
2019-05-14T12:20:29.671Z,74.12
2019-05-14T12:21:28.884Z,76.54
2019-05-14T12:22:28.587Z,75.25
2019-05-14T12:23:29.852Z,73.64
2019-05-14T12:24:29.206Z,78.79
2019-05-14T12:25:29.382Z,77.83
2019-05-14T12:26:28.804Z,76.54
2019-05-14T12:27:27.926Z,78.63
2019-05-14T12:28:29.127Z,89.11
2019-05-14T12:29:29.477Z,78.47
2019-05-14T12:30:28.829Z,78.79
2019-05-14T12:31:29.533Z,77.50
2019-05-14T12:32:29.521Z,77.67
2019-05-14T12:33:31.316Z,77.67
2019-05-14T12:34:30.032Z,77.18
2019-05-14T12:35:29.489Z,77.02
2019-05-14T12:36:29.480Z,78.79
2019-05-14T12:37:29.519Z,76.86
2019-05-14T12:38:29.830Z,78.47
2019-05-14T12:39:29.905Z,76.05
2019-05-14T12:40:30.063Z,76.22
2019-05-14T12:41:30.243Z,77.67
2019-05-14T12:42:30.424Z,77.99
2019-05-14T12:43:31.341Z,77.50
2019-05-14T12:44:30.742Z,75.25
2019-05-14T12:45:30.937Z,70.42
2019-05-14T12:46:31.104Z,78.96
2019-05-14T12:47:31.846Z,77.02
2019-05-14T12:48:31.492Z,74.93
2019-05-14T12:49:31.859Z,73.15
2019-05-14T12:50:31.895Z,79.12
2019-05-14T12:51:32.065Z,76.05
2019-05-14T12:52:32.212Z,78.15
2019-05-14T12:53:32.380Z,77.99
2019-05-14T12:54:32.570Z,82.18